Time;durP1;ratioP1;P1;durP2;ratioP2;P2;SDS_P1;SDS_P2;PMS_P1;PMS_P2;Temp;Humidity;BMP_temperature;BMP_pressure;BME280_temperature;BME280_humidity;BME280_pressure;Samples;Min_cycle;Max_cycle;Signal;HPM_P1;HPM_P2
2023/06/25 00:02:14;;;;;;;5.25;4.68;;;22.20;78.70;;;;;;5093625;28;20048;-33
2023/06/25 00:04:41;;;;;;;5.20;4.60;;;;;;;;;;5092105;28;20123;-37
2023/06/25 00:07:08;;;;;;;6.35;4.60;;;;;;;;;;5074585;28;20132;-32
2023/06/25 00:09:36;;;;;;;6.57;5.30;;;22.50;63.60;;;;;;5087227;28;20044;-36
2023/06/25 00:12:03;;;;;;;5.15;4.65;;;;;;;;;;5093684;28;20054;-38
2023/06/25 00:14:30;;;;;;;6.25;4.53;;;22.50;78.80;;;;;;5093402;28;20127;-32
2023/06/25 00:16:58;;;;;;;6.03;5.20;;;22.40;79.80;;;;;;5093959;28;20078;-32
2023/06/25 00:19:26;;;;;;;7.35;5.65;;;22.20;68.80;;;;;;5093612;28;20421;-32
2023/06/25 00:21:53;;;;;;;6.93;5.10;;;22.30;79.80;;;;;;5086764;28;20078;-32
2023/06/25 00:24:20;;;;;;;6.07;5.15;;;;;;;;;;5093222;28;20105;-37
2023/06/25 00:26:48;;;;;;;7.55;5.07;;;22.20;78.90;;;;;;5073480;28;20091;-33
2023/06/25 00:29:15;;;;;;;6.75;5.32;;;21.50;78.50;;;;;;5073106;28;20379;-32
2023/06/25 00:31:42;;;;;;;10.88;5.30;;;22.20;78.90;;;;;;5092018;28;20136;-33
2023/06/25 00:34:09;;;;;;;7.00;5.15;;;22.40;80.00;;;;;;5092874;28;20048;-33
2023/06/25 00:36:37;;;;;;;5.45;4.80;;;;;;;;;;5092807;28;20131;-36
2023/06/25 00:39:04;;;;;;;6.88;5.25;;;;;;;;;;5092380;28;20421;-38
2023/06/25 00:41:31;;;;;;;6.00;5.40;;;;;;;;;;5093286;28;20044;-37
2023/06/25 00:44:00;;;;;;;6.93;5.45;;;22.10;66.90;;;;;;5092769;28;20136;-38
2023/06/25 00:46:26;;;;;;;7.57;5.57;;;22.40;69.10;;;;;;5093363;28;20071;-39
2023/06/25 00:48:53;;;;;;;6.60;5.25;;;;;;;;;;5092621;28;20052;-40
2023/06/25 00:51:27;;;;;;;6.80;5.43;;;;;;;;;;5093266;28;20048;-35
2023/06/25 00:53:54;;;;;;;7.07;5.78;;;;;;;;;;5092225;28;20051;-41
2023/06/25 00:56:27;;;;;;;7.05;5.32;;;22.00;67.30;;;;;;5092830;28;20089;-41
2023/06/25 00:58:57;;;;;;;6.32;5.65;;;22.10;79.00;;;;;;5092984;28;20517;-41
2023/06/25 01:01:26;;;;;;;8.13;5.95;;;22.30;63.70;;;;;;5092850;28;20054;-34
2023/06/25 01:03:55;;;;;;;8.93;5.90;;;22.50;66.60;;;;;;5092524;28;20044;-37
2023/06/25 01:06:29;;;;;;;7.50;6.32;;;22.20;79.00;;;;;;5084628;28;20394;-40
2023/06/25 01:08:55;;;;;;;6.82;6.05;;;21.90;67.70;;;;;;5078181;28;20424;-41
2023/06/25 01:11:22;;;;;;;8.05;6.47;;;22.60;79.70;;;;;;5092688;28;20040;-40
2023/06/25 01:13:49;;;;;;;7.85;6.25;;;;;;;;;;5092558;28;20055;-38
2023/06/25 01:16:16;;;;;;;8.18;6.03;;;21.50;78.60;;;;;;5092598;28;20131;-37
2023/06/25 01:18:44;;;;;;;8.95;6.03;;;22.50;71.60;;;;;;5086603;28;20629;-39
2023/06/25 01:21:11;;;;;;;7.68;5.97;;;;;;;;;;5092660;28;20119;-36
2023/06/25 01:23:39;;;;;;;8.75;5.90;;;22.40;79.90;;;;;;5088916;28;20054;-40
2023/06/25 01:26:06;;;;;;;8.25;6.45;;;22.30;70.00;;;;;;5092337;28;20557;-38
2023/06/25 01:28:33;;;;;;;7.75;6.40;;;22.40;76.90;;;;;;5092394;28;20119;-41
2023/06/25 01:31:00;;;;;;;7.88;6.35;;;;;;;;;;5092141;28;20040;-37
2023/06/25 01:33:26;;;;;;;8.23;6.63;;;22.20;79.00;;;;;;5091042;28;20069;-39
2023/06/25 01:35:54;;;;;;;8.23;6.55;;;;;;;;;;5076524;28;20135;-39
2023/06/25 01:38:21;;;;;;;10.20;6.55;;;;;;;;;;5092324;28;20056;-38
2023/06/25 01:40:49;;;;;;;7.88;6.45;;;23.10;80.00;;;;;;5091934;28;20052;-41
2023/06/25 01:43:15;;;;;;;7.60;6.30;;;21.80;79.70;;;;;;5091840;28;20055;-40
2023/06/25 01:45:42;;;;;;;9.00;6.57;;;21.30;67.90;;;;;;5091719;28;20123;-40
2023/06/25 01:48:09;;;;;;;8.77;6.80;;;21.00;78.50;;;;;;5091895;28;20131;-42
2023/06/25 01:50:36;;;;;;;9.75;7.10;;;22.20;79.50;;;;;;5090977;28;20123;-37
2023/06/25 01:53:02;;;;;;;8.40;6.80;;;21.20;70.60;;;;;;5091716;28;20056;-37
2023/06/25 01:55:29;;;;;;;7.63;6.18;;;21.20;78.70;;;;;;5091942;28;20052;-40
2023/06/25 01:57:57;;;;;;;8.82;6.45;;;22.10;63.60;;;;;;5091497;28;20637;-39
2023/06/25 02:00:25;;;;;;;8.07;6.43;;;21.90;79.10;;;;;;5092125;28;20132;-40
2023/06/25 02:02:51;;;;;;;8.65;7.05;;;21.40;78.70;;;;;;5073842;28;20048;-37
2023/06/25 02:05:18;;;;;;;8.93;7.10;;;22.10;79.20;;;;;;5091636;28;20090;-37
2023/06/25 02:07:45;;;;;;;8.85;6.85;;;;;;;;;;5078546;28;20127;-37
2023/06/25 02:10:15;;;;;;;8.35;7.10;;;;;;;;;;5091660;28;20126;-40
2023/06/25 02:12:42;;;;;;;9.20;7.40;;;22.00;79.10;;;;;;5091339;28;20044;-37
2023/06/25 02:15:10;;;;;;;8.65;6.78;;;21.90;79.10;;;;;;5091653;28;20082;-39
2023/06/25 02:17:37;;;;;;;9.43;7.45;;;;;;;;;;5091409;28;20052;-39
2023/06/25 02:20:05;;;;;;;8.45;6.55;;;22.20;71.30;;;;;;5091414;28;20119;-39
2023/06/25 02:22:32;;;;;;;8.93;7.00;;;;;;;;;;5085785;28;20128;-37
2023/06/25 02:24:59;;;;;;;9.05;6.72;;;;;;;;;;5086056;28;20052;-36
2023/06/25 02:27:26;;;;;;;9.80;7.20;;;21.90;78.60;;;;;;5091512;28;20139;-37
2023/06/25 02:29:53;;;;;;;8.02;6.85;;;;;;;;;;5091296;28;20095;-36
2023/06/25 02:32:21;;;;;;;8.52;7.10;;;22.70;77.40;;;;;;5091077;28;20123;-36
2023/06/25 02:34:48;;;;;;;9.80;7.53;;;22.10;74.70;;;;;;5091521;28;20048;-36
2023/06/25 02:37:15;;;;;;;8.60;6.93;;;;;;;;;;5090750;28;20256;-40
2023/06/25 02:39:42;;;;;;;10.35;7.30;;;;;;;;;;5086062;28;20477;-37
2023/06/25 02:42:09;;;;;;;8.95;7.00;;;22.00;80.30;;;;;;5091140;28;20415;-40
2023/06/25 02:44:36;;;;;;;8.60;7.00;;;;;;;;;;5091189;28;20135;-36
2023/06/25 02:47:03;;;;;;;9.35;7.10;;;22.30;72.80;;;;;;5091544;28;20048;-39
2023/06/25 02:49:31;;;;;;;9.65;7.22;;;22.10;79.40;;;;;;5091367;28;20122;-37
2023/06/25 02:51:58;;;;;;;8.80;7.43;;;21.50;80.00;;;;;;5091447;28;20076;-37
2023/06/25 02:54:24;;;;;;;10.68;7.95;;;22.50;70.70;;;;;;5093087;28;20044;-36
2023/06/25 02:56:52;;;;;;;9.38;7.22;;;22.50;68.80;;;;;;5095157;28;20048;-37
2023/06/25 02:59:19;;;;;;;11.98;7.75;;;21.90;79.80;;;;;;5095279;28;20105;-36
2023/06/25 03:01:46;;;;;;;10.48;7.65;;;;;;;;;;5094883;28;20105;-37
2023/06/25 03:04:12;;;;;;;8.82;6.90;;;21.80;70.30;;;;;;5094864;28;20048;-37
2023/06/25 03:06:41;;;;;;;9.55;7.45;;;22.00;80.40;;;;;;5094958;28;20146;-40
2023/06/25 03:09:08;;;;;;;9.95;7.63;;;22.20;66.70;;;;;;5095017;28;20135;-37
2023/06/25 03:11:35;;;;;;;9.95;7.65;;;21.60;74.90;;;;;;5079550;28;20051;-37
2023/06/25 03:14:01;;;;;;;9.77;7.32;;;21.80;79.50;;;;;;5088502;28;20127;-40
2023/06/25 03:16:28;;;;;;;9.30;7.90;;;22.80;80.40;;;;;;5094755;28;20524;-37
2023/06/25 03:18:55;;;;;;;11.75;8.25;;;;;;;;;;5094562;28;20131;-39
2023/06/25 03:21:22;;;;;;;11.38;7.25;;;21.20;79.30;;;;;;5094914;28;20044;-39
2023/06/25 03:23:50;;;;;;;10.73;8.07;;;21.90;63.80;;;;;;5094224;28;20048;-34
2023/06/25 03:26:17;;;;;;;10.07;8.00;;;;;;;;;;5088494;28;20140;-37
2023/06/25 03:28:44;;;;;;;9.95;7.82;;;21.50;68.20;;;;;;5081589;28;20127;-37
2023/06/25 03:31:11;;;;;;;8.98;7.35;;;21.10;79.70;;;;;;5094319;28;20512;-40
2023/06/25 03:33:38;;;;;;;12.73;8.15;;;;;;;;;;5088045;28;20477;-35
2023/06/25 03:36:05;;;;;;;10.30;7.97;;;21.30;74.90;;;;;;5082895;28;20483;-40
2023/06/25 03:38:32;;;;;;;9.50;7.50;;;22.20;71.90;;;;;;5094147;28;20501;-36
2023/06/25 03:41:00;;;;;;;10.60;7.72;;;21.50;79.30;;;;;;5094149;28;20067;-37
2023/06/25 03:43:27;;;;;;;9.68;8.18;;;;;;;;;;5085680;28;20401;-37
2023/06/25 03:45:54;;;;;;;11.63;7.72;;;;;;;;;;5094343;28;20440;-36
2023/06/25 03:48:21;;;;;;;11.20;7.75;;;22.20;80.30;;;;;;5094238;28;20131;-39
2023/06/25 03:50:47;;;;;;;9.85;7.70;;;22.60;64.30;;;;;;5094060;28;20040;-41
2023/06/25 03:53:14;;;;;;;10.63;8.13;;;21.50;76.00;;;;;;5093695;28;20127;-41
2023/06/25 03:55:41;;;;;;;10.40;7.90;;;21.90;79.70;;;;;;5094103;28;20466;-41
2023/06/25 03:58:09;;;;;;;14.00;8.57;;;21.80;63.90;;;;;;5089499;28;20058;-39
2023/06/25 04:00:36;;;;;;;10.27;8.07;;;;;;;;;;5087791;28;20580;-35
2023/06/25 04:03:03;;;;;;;8.88;7.45;;;21.90;80.10;;;;;;5093283;28;20059;-39
2023/06/25 04:05:30;;;;;;;10.52;7.57;;;21.90;79.90;;;;;;5093203;28;20054;-39
2023/06/25 04:07:57;;;;;;;10.88;8.13;;;;;;;;;;5093770;28;20052;-38
2023/06/25 04:10:23;;;;;;;9.65;7.88;;;21.80;80.60;;;;;;5093943;28;20044;-37
2023/06/25 04:12:50;;;;;;;10.13;8.25;;;20.80;79.30;;;;;;5093242;28;20052;-41
2023/06/25 04:15:18;;;;;;;9.68;7.53;;;21.60;70.80;;;;;;5087423;28;20127;-39
2023/06/25 04:17:46;;;;;;;11.23;7.00;;;21.40;70.10;;;;;;5093621;28;20048;-40
2023/06/25 04:20:13;;;;;;;8.13;6.43;;;;;;;;;;5093443;28;20131;-37
2023/06/25 04:22:40;;;;;;;9.15;7.25;;;21.60;79.70;;;;;;5090573;28;20044;-39
2023/06/25 04:25:08;;;;;;;8.32;7.10;;;21.90;63.80;;;;;;5093547;28;20060;-37
2023/06/25 04:27:34;;;;;;;9.02;6.68;;;20.70;79.00;;;;;;5093688;28;20048;-38
2023/06/25 04:30:01;;;;;;;12.02;6.82;;;22.00;67.90;;;;;;5077695;28;20416;-37
2023/06/25 04:32:29;;;;;;;9.63;7.20;;;22.50;80.20;;;;;;5093253;28;20131;-38
2023/06/25 04:34:56;;;;;;;10.10;7.53;;;22.10;79.60;;;;;;5093466;28;20475;-40
2023/06/25 04:37:22;;;;;;;10.40;7.22;;;22.10;80.50;;;;;;5092506;28;20138;-41
2023/06/25 04:39:50;;;;;;;9.48;6.78;;;;;;;;;;5093019;28;20473;-37
2023/06/25 04:42:17;;;;;;;8.02;6.28;;;;;;;;;;5088132;28;20131;-39
2023/06/25 04:44:44;;;;;;;8.00;6.78;;;;;;;;;;5088615;28;20047;-36
2023/06/25 04:47:11;;;;;;;10.15;6.80;;;22.30;79.70;;;;;;5092985;28;20117;-40
2023/06/25 04:49:39;;;;;;;8.45;6.85;;;22.00;63.70;;;;;;5088883;28;20414;-36
2023/06/25 04:52:06;;;;;;;10.38;7.47;;;;;;;;;;5077251;28;20055;-39
2023/06/25 04:54:33;;;;;;;9.48;6.95;;;22.20;80.00;;;;;;5083966;28;20047;-41
2023/06/25 04:56:59;;;;;;;11.85;7.47;;;22.30;80.80;;;;;;5093078;28;20127;-38
2023/06/25 04:59:26;;;;;;;8.75;6.90;;;21.90;67.10;;;;;;5077862;28;20137;-37
2023/06/25 05:01:53;;;;;;;8.13;6.88;;;21.00;79.30;;;;;;5079460;28;20456;-38
2023/06/25 05:04:19;;;;;;;9.27;6.90;;;21.50;79.80;;;;;;5081413;28;20123;-39
2023/06/25 05:06:47;;;;;;;8.80;6.50;;;21.20;63.80;;;;;;5093024;28;20058;-37
2023/06/25 05:09:14;;;;;;;11.30;6.72;;;;;;;;;;5092749;28;20044;-36
2023/06/25 05:11:41;;;;;;;10.25;7.15;;;21.10;79.90;;;;;;5092699;28;20058;-40
2023/06/25 05:14:08;;;;;;;11.88;8.25;;;22.20;80.50;;;;;;5088658;28;20052;-39
2023/06/25 05:16:35;;;;;;;10.15;6.95;;;;;;;;;;5092583;28;20047;-32
2023/06/25 05:19:02;;;;;;;10.70;7.35;;;21.60;80.80;;;;;;5072585;28;20139;-41
2023/06/25 05:21:29;;;;;;;9.52;7.45;;;;;;;;;;5091453;28;20581;-38
2023/06/25 05:24:00;;;;;;;8.35;7.07;;;22.10;81.10;;;;;;5092047;28;20557;-39
2023/06/25 05:26:27;;;;;;;9.60;7.32;;;;;;;;;;5092484;28;20091;-37
2023/06/25 05:28:54;;;;;;;10.90;7.50;;;21.70;80.20;;;;;;5092495;28;20135;-41
2023/06/25 05:31:21;;;;;;;9.55;7.47;;;;;;;;;;5091241;28;20058;-38
2023/06/25 05:33:48;;;;;;;10.00;7.38;;;22.20;74.80;;;;;;5091980;28;20130;-37
2023/06/25 05:36:14;;;;;;;9.57;7.25;;;22.10;81.10;;;;;;5091761;28;20040;-41
2023/06/25 05:38:41;;;;;;;9.85;7.00;;;22.20;67.20;;;;;;5092310;28;20055;-37
2023/06/25 05:41:09;;;;;;;10.65;7.35;;;21.00;80.00;;;;;;5092256;28;20415;-38
2023/06/25 05:43:36;;;;;;;9.98;7.05;;;21.60;80.70;;;;;;5091889;28;20044;-37
2023/06/25 05:46:03;;;;;;;12.57;7.03;;;21.50;72.60;;;;;;5090960;28;20400;-40
2023/06/25 05:48:29;;;;;;;9.18;7.55;;;21.30;65.60;;;;;;5080000;28;20127;-39
2023/06/25 05:50:56;;;;;;;12.50;7.88;;;20.80;80.50;;;;;;5073717;28;20409;-36
2023/06/25 05:53:24;;;;;;;9.38;7.00;;;22.10;80.90;;;;;;5079554;28;20047;-36
2023/06/25 05:55:51;;;;;;;13.77;7.55;;;22.30;81.00;;;;;;5080623;28;20056;-40
2023/06/25 05:58:19;;;;;;;10.00;7.57;;;21.90;65.10;;;;;;5072711;28;20051;-41
2023/06/25 06:00:45;;;;;;;12.27;8.13;;;21.60;81.50;;;;;;5081453;28;20123;-38
2023/06/25 06:03:12;;;;;;;11.43;8.60;;;21.50;73.80;;;;;;5076550;28;20041;-36
2023/06/25 06:05:39;;;;;;;14.95;9.00;;;21.70;77.90;;;;;;5078355;28;20415;-39
2023/06/25 06:08:05;;;;;;;11.93;7.90;;;21.50;81.20;;;;;;5079667;28;20135;-40
2023/06/25 06:10:32;;;;;;;11.38;8.23;;;21.80;71.80;;;;;;5079076;28;20072;-36
2023/06/25 06:12:59;;;;;;;12.57;8.30;;;22.20;81.60;;;;;;5075427;28;20548;-36
2023/06/25 06:15:27;;;;;;;10.55;8.48;;;22.50;82.40;;;;;;5087797;28;20135;-41
2023/06/25 06:17:54;;;;;;;10.98;8.30;;;21.90;81.40;;;;;;5090694;28;20094;-40
2023/06/25 06:20:21;;;;;;;9.80;8.13;;;;;;;;;;5085537;28;20048;-38
2023/06/25 06:22:47;;;;;;;12.10;8.38;;;21.80;82.20;;;;;;5091545;28;20126;-39
2023/06/25 06:25:14;;;;;;;12.55;9.07;;;21.80;81.40;;;;;;5087846;28;20040;-40
2023/06/25 06:27:41;;;;;;;11.90;8.80;;;22.40;78.00;;;;;;5080198;28;20548;-38
2023/06/25 06:30:08;;;;;;;12.05;8.68;;;22.00;68.40;;;;;;5084945;28;20135;-40
2023/06/25 06:32:36;;;;;;;11.68;8.57;;;22.30;82.10;;;;;;5091848;28;20070;-39
2023/06/25 06:35:03;;;;;;;13.13;8.60;;;22.40;82.00;;;;;;5090255;28;20047;-37
2023/06/25 06:37:30;;;;;;;11.85;8.52;;;;;;;;;;5080926;28;20079;-41
2023/06/25 06:39:58;;;;;;;14.95;8.93;;;22.10;66.10;;;;;;5076531;28;20067;-36
2023/06/25 06:42:24;;;;;;;12.10;9.00;;;23.20;82.00;;;;;;5083846;28;20078;-38
2023/06/25 06:44:51;;;;;;;12.05;8.60;;;;;;;;;;5081204;28;20140;-37
2023/06/25 06:47:18;;;;;;;10.73;8.48;;;21.40;81.50;;;;;;5084325;28;20123;-38
2023/06/25 06:49:47;;;;;;;13.10;8.82;;;22.20;66.00;;;;;;5083056;28;20466;-37
2023/06/25 06:52:15;;;;;;;11.55;7.97;;;;;;;;;;5085772;28;20047;-39
2023/06/25 06:54:41;;;;;;;13.32;9.88;;;23.20;71.30;;;;;;5083902;28;20056;-36
2023/06/25 06:57:08;;;;;;;13.55;8.82;;;22.10;81.90;;;;;;5082554;28;20130;-40
2023/06/25 06:59:35;;;;;;;11.77;9.00;;;22.70;82.30;;;;;;5077794;28;20131;-41
2023/06/25 07:02:02;;;;;;;12.05;9.38;;;;;;;;;;5089020;28;20455;-36
2023/06/25 07:04:29;;;;;;;13.68;10.23;;;22.30;82.60;;;;;;5095170;28;20135;-41
2023/06/25 07:06:57;;;;;;;13.02;9.98;;;21.90;81.60;;;;;;5085326;28;20045;-38
2023/06/25 07:09:26;;;;;;;11.73;9.48;;;21.30;81.70;;;;;;5086884;28;20048;-41
2023/06/25 07:11:53;;;;;;;12.90;9.07;;;;;;;;;;5095213;28;20412;-39
2023/06/25 07:14:19;;;;;;;11.48;9.35;;;22.10;81.60;;;;;;5094938;28;20076;-39
2023/06/25 07:16:46;;;;;;;10.50;8.15;;;;;;;;;;5095160;28;20143;-36
2023/06/25 07:19:13;;;;;;;12.20;7.72;;;22.50;82.30;;;;;;5095316;28;20101;-40
2023/06/25 07:21:40;;;;;;;12.25;7.95;;;;;;;;;;5080626;28;20405;-36
2023/06/25 07:24:08;;;;;;;10.85;7.25;;;22.80;82.10;;;;;;5077388;28;20048;-40
2023/06/25 07:26:36;;;;;;;12.52;7.30;;;;;;;;;;5082309;28;20048;-39
2023/06/25 07:29:03;;;;;;;8.90;6.93;;;;;;;;;;5085230;28;20054;-35
2023/06/25 07:31:30;;;;;;;9.27;7.22;;;;;;;;;;5082273;28;20072;-37
2023/06/25 07:33:57;;;;;;;9.35;6.30;;;;;;;;;;5084541;28;20531;-36
2023/06/25 07:36:23;;;;;;;10.15;6.70;;;23.50;81.10;;;;;;5078660;28;20049;-38
2023/06/25 07:38:50;;;;;;;7.25;6.28;;;;;;;;;;5080098;28;20127;-37
2023/06/25 07:41:19;;;;;;;8.48;6.10;;;22.70;80.40;;;;;;5081791;28;20135;-38
2023/06/25 07:43:46;;;;;;;9.98;6.07;;;22.50;81.10;;;;;;5082330;28;20122;-37
2023/06/25 07:46:12;;;;;;;8.02;5.78;;;22.60;80.40;;;;;;5084949;28;20043;-39
2023/06/25 07:48:39;;;;;;;7.75;5.80;;;23.00;65.30;;;;;;5081638;28;20044;-37
2023/06/25 07:51:06;;;;;;;10.40;5.65;;;22.60;76.00;;;;;;5091568;28;20370;-39
2023/06/25 07:53:33;;;;;;;8.07;5.45;;;;;;;;;;5091977;28;20058;-38
2023/06/25 07:56:00;;;;;;;7.10;5.35;;;21.90;79.80;;;;;;5082577;28;20044;-41
2023/06/25 07:58:28;;;;;;;6.18;5.57;;;23.40;69.20;;;;;;5082995;28;20093;-40
2023/06/25 08:00:55;;;;;;;8.10;5.32;;;23.10;81.20;;;;;;5084151;28;20139;-41
2023/06/25 08:03:22;;;;;;;7.25;5.57;;;23.30;67.40;;;;;;5075867;28;20044;-37
2023/06/25 08:05:49;;;;;;;6.78;5.53;;;22.80;80.50;;;;;;5083425;28;20051;-42
2023/06/25 08:08:16;;;;;;;7.97;5.55;;;22.70;69.80;;;;;;5081142;28;20075;-40
2023/06/25 08:10:43;;;;;;;6.07;4.90;;;22.90;80.70;;;;;;5082426;28;20041;-41
2023/06/25 08:13:09;;;;;;;5.88;4.93;;;22.60;79.90;;;;;;5086050;28;20411;-42
2023/06/25 08:15:37;;;;;;;6.43;4.80;;;22.80;66.80;;;;;;5076168;28;20132;-39
2023/06/25 08:18:04;;;;;;;5.72;5.00;;;22.80;67.70;;;;;;5089920;28;20088;-36
2023/06/25 08:20:31;;;;;;;6.47;5.15;;;22.10;79.80;;;;;;5094074;28;20043;-41
2023/06/25 08:22:58;;;;;;;5.22;4.20;;;;;;;;;;5089153;28;20598;-37
2023/06/25 08:25:26;;;;;;;7.05;4.97;;;23.60;80.90;;;;;;5081559;28;20437;-41
2023/06/25 08:27:53;;;;;;;7.00;4.50;;;23.50;80.00;;;;;;5092073;28;20047;-40
2023/06/25 08:30:19;;;;;;;5.65;4.28;;;22.60;79.50;;;;;;5093050;28;20144;-41
2023/06/25 08:32:47;;;;;;;5.80;4.43;;;23.00;64.50;;;;;;5092707;28;20400;-37
2023/06/25 08:35:14;;;;;;;7.25;4.53;;;;;;;;;;5090648;28;20048;-37
2023/06/25 08:37:42;;;;;;;5.95;4.63;;;23.30;65.00;;;;;;5092518;28;20131;-37
2023/06/25 08:40:10;;;;;;;5.72;4.53;;;23.00;64.50;;;;;;5093226;28;20139;-37
2023/06/25 08:42:37;;;;;;;5.00;4.50;;;23.20;65.40;;;;;;5093107;28;20139;-39
2023/06/25 08:45:04;;;;;;;5.20;4.25;;;23.60;73.30;;;;;;5093180;28;20156;-40
2023/06/25 08:47:33;;;;;;;5.75;4.35;;;23.10;64.40;;;;;;5093259;28;20473;-37
2023/06/25 08:50:01;;;;;;;5.03;4.35;;;23.00;79.50;;;;;;5091576;28;20052;-41
2023/06/25 08:52:28;;;;;;;4.90;4.10;;;23.50;80.50;;;;;;5092904;28;20134;-41
2023/06/25 08:54:55;;;;;;;4.85;4.13;;;;;;;;;;5092759;28;20098;-37
2023/06/25 08:57:22;;;;;;;4.68;4.18;;;22.30;72.80;;;;;;5093090;28;20044;-41
2023/06/25 08:59:49;;;;;;;4.70;4.20;;;23.50;79.90;;;;;;5092946;28;20082;-41
2023/06/25 09:02:16;;;;;;;4.88;4.38;;;;;;;;;;5091886;28;20163;-38
2023/06/25 09:04:43;;;;;;;5.40;4.38;;;22.90;80.00;;;;;;5092821;28;20126;-41
2023/06/25 09:07:15;;;;;;;5.82;4.72;;;22.60;64.20;;;;;;5092789;28;20397;-38
2023/06/25 09:09:42;;;;;;;5.07;4.10;;;23.40;79.60;;;;;;5092709;28;20048;-41
2023/06/25 09:12:09;;;;;;;4.68;4.20;;;;;;;;;;5091536;28;20054;-40
2023/06/25 09:14:36;;;;;;;7.47;4.30;;;23.10;79.40;;;;;;5083796;28;20119;-40
2023/06/25 09:17:03;;;;;;;4.68;4.18;;;;;;;;;;5080688;28;20131;-37
2023/06/25 09:19:30;;;;;;;5.72;3.92;;;23.10;69.60;;;;;;5079844;28;20082;-40
2023/06/25 09:21:57;;;;;;;5.18;3.67;;;23.10;78.80;;;;;;5080529;28;20048;-40
2023/06/25 09:24:26;;;;;;;5.68;4.57;;;22.90;78.70;;;;;;5084046;28;20056;-39
2023/06/25 09:26:53;;;;;;;4.60;4.10;;;23.20;63.80;;;;;;5091888;28;20106;-39
2023/06/25 09:29:21;;;;;;;4.75;3.80;;;23.30;63.80;;;;;;5092142;28;20444;-37
2023/06/25 09:31:48;;;;;;;4.25;3.83;;;23.20;78.80;;;;;;5091603;28;20572;-40
2023/06/25 09:34:15;;;;;;;4.80;4.07;;;;;;;;;;5081932;28;20052;-37
2023/06/25 09:36:42;;;;;;;4.43;4.03;;;23.10;76.60;;;;;;5081777;28;20044;-40
2023/06/25 09:39:09;;;;;;;4.18;3.78;;;23.70;66.60;;;;;;5080349;28;20052;-38
2023/06/25 09:41:40;;;;;;;4.65;3.92;;;23.40;63.70;;;;;;5079423;28;20123;-36
2023/06/25 09:44:07;;;;;;;4.68;3.95;;;23.50;76.50;;;;;;5080169;28;20102;-41
2023/06/25 09:46:35;;;;;;;4.28;3.80;;;23.40;78.60;;;;;;5079975;28;20131;-41
2023/06/25 09:49:02;;;;;;;4.05;3.65;;;22.60;79.00;;;;;;5081830;28;20139;-40
2023/06/25 09:51:32;;;;;;;4.85;3.90;;;23.40;63.60;;;;;;5079664;28;20059;-36
2023/06/25 09:53:58;;;;;;;4.78;3.97;;;23.30;78.80;;;;;;5081382;28;20163;-41
2023/06/25 09:56:25;;;;;;;4.47;3.85;;;23.10;63.40;;;;;;5082348;28;20160;-38
2023/06/25 09:58:53;;;;;;;4.72;4.07;;;23.30;78.50;;;;;;5080122;28;20048;-39
2023/06/25 10:01:20;;;;;;;3.70;3.38;;;22.50;78.30;;;;;;5082091;28;20457;-39
2023/06/25 10:03:47;;;;;;;4.00;3.63;;;23.20;79.20;;;;;;5080150;28;20040;-40
2023/06/25 10:06:14;;;;;;;4.70;3.63;;;;;;;;;;5083793;28;20450;-39
2023/06/25 10:08:40;;;;;;;4.32;3.92;;;23.50;78.80;;;;;;5078710;28;20141;-41
2023/06/25 10:11:07;;;;;;;4.75;3.90;;;23.10;78.60;;;;;;5080436;28;20044;-40
2023/06/25 10:13:34;;;;;;;5.38;4.18;;;22.70;70.70;;;;;;5083199;28;20050;-41
2023/06/25 10:16:02;;;;;;;5.18;4.03;;;23.90;78.70;;;;;;5082918;28;20052;-39
2023/06/25 10:18:29;;;;;;;6.38;4.38;;;23.60;79.20;;;;;;5081465;28;20048;-41
2023/06/25 10:20:56;;;;;;;4.38;3.72;;;23.70;72.30;;;;;;5082000;28;20059;-39
2023/06/25 10:23:24;;;;;;;5.20;4.13;;;;;;;;;;5088936;28;20051;-38
2023/06/25 10:25:54;;;;;;;4.55;3.60;;;23.90;78.40;;;;;;5079987;28;20052;-40
2023/06/25 10:28:27;;;;;;;4.20;3.60;;;24.30;78.60;;;;;;5086978;28;20058;-39
2023/06/25 10:30:54;;;;;;;4.57;3.88;;;24.70;69.70;;;;;;5086472;28;20045;-38
2023/06/25 10:33:22;;;;;;;4.10;3.70;;;23.60;63.30;;;;;;5088332;28;20469;-41
2023/06/25 10:35:59;;;;;;;3.83;3.13;;;23.60;63.20;;;;;;5084735;28;20050;-32
2023/06/25 10:38:25;;;;;;;4.20;3.50;;;23.60;78.20;;;;;;5077794;28;20544;-40
2023/06/25 10:40:54;;;;;;;4.03;3.63;;;;;;;;;;5091343;28;20136;-37
2023/06/25 10:43:21;;;;;;;4.28;3.50;;;23.60;78.30;;;;;;5090522;28;20048;-41
2023/06/25 10:45:49;;;;;;;3.90;3.30;;;23.00;78.60;;;;;;5091129;28;20531;-41
2023/06/25 10:48:16;;;;;;;4.18;3.50;;;22.80;67.00;;;;;;5091034;28;20409;-38
2023/06/25 10:50:44;;;;;;;3.63;3.30;;;24.10;65.00;;;;;;5091176;28;20149;-39
2023/06/25 10:53:11;;;;;;;3.65;3.20;;;23.30;64.00;;;;;;5091271;28;20089;-39
2023/06/25 10:55:38;;;;;;;4.00;3.60;;;23.60;77.80;;;;;;5091443;28;20044;-40
2023/06/25 10:58:05;;;;;;;3.85;3.25;;;23.60;69.10;;;;;;5091263;28;20055;-37
2023/06/25 11:00:32;;;;;;;4.05;3.50;;;23.80;78.10;;;;;;5090312;28;20131;-40
2023/06/25 11:02:59;;;;;;;3.70;3.30;;;22.70;77.50;;;;;;5090680;28;20052;-41
2023/06/25 11:05:33;;;;;;;3.88;3.45;;;23.00;77.30;;;;;;5091432;28;20123;-41
2023/06/25 11:08:01;;;;;;;3.35;3.05;;;24.40;74.40;;;;;;5091195;28;20069;-39
2023/06/25 11:10:27;;;;;;;4.65;3.53;;;23.70;72.60;;;;;;5086275;28;20119;-40
2023/06/25 11:12:55;;;;;;;4.05;3.45;;;24.10;78.70;;;;;;5079002;28;20400;-40
2023/06/25 11:15:21;;;;;;;3.80;3.38;;;24.30;68.00;;;;;;5085179;28;20047;-37
2023/06/25 11:17:51;;;;;;;3.88;3.40;;;24.20;78.20;;;;;;5078287;28;20044;-41
2023/06/25 11:20:18;;;;;;;3.58;3.28;;;;;;;;;;5081486;28;20056;-37
2023/06/25 11:22:44;;;;;;;3.90;3.47;;;23.00;78.00;;;;;;5082832;28;20127;-41
2023/06/25 11:25:13;;;;;;;4.13;3.50;;;24.30;78.70;;;;;;5094533;28;20632;-32
2023/06/25 11:27:40;;;;;;;4.07;3.40;;;23.40;78.10;;;;;;5094747;28;20432;-32
2023/06/25 11:30:08;;;;;;;4.05;3.63;;;22.60;71.10;;;;;;5093714;28;20075;-32
2023/06/25 11:32:36;;;;;;;3.88;3.42;;;23.60;77.60;;;;;;5094402;28;20055;-32
2023/06/25 11:35:10;;;;;;;3.92;3.40;;;24.10;75.10;;;;;;5094817;28;20062;-32
2023/06/25 11:37:43;;;;;;;3.83;3.50;;;23.60;74.20;;;;;;5094102;28;20048;-33
2023/06/25 11:40:22;;;;;;;3.97;3.33;;;23.90;78.10;;;;;;5094082;28;20320;-32
2023/06/25 11:42:49;;;;;;;4.20;3.50;;;;;;;;;;5089629;28;20067;-33
2023/06/25 11:45:16;;;;;;;5.07;3.80;;;23.20;77.30;;;;;;5082767;28;20051;-31
2023/06/25 11:47:44;;;;;;;5.22;3.70;;;24.20;77.80;;;;;;5084871;28;20480;-33
2023/06/25 11:50:11;;;;;;;3.15;2.85;;;23.10;74.10;;;;;;5073668;28;20413;-32
2023/06/25 11:52:38;;;;;;;4.00;3.60;;;23.50;77.50;;;;;;5084886;28;20052;-32
2023/06/25 11:55:05;;;;;;;3.70;3.30;;;23.80;62.70;;;;;;5082108;28;20821;-35
2023/06/25 11:57:33;;;;;;;3.50;3.13;;;23.90;77.60;;;;;;5082019;28;20485;-31
2023/06/25 12:00:00;;;;;;;3.90;3.42;;;24.00;77.70;;;;;;5082667;28;20048;-32
2023/06/25 12:02:27;;;;;;;4.65;3.90;;;24.30;67.90;;;;;;5079514;28;20127;-32
2023/06/25 12:04:54;;;;;;;3.85;3.30;;;;;;;;;;5082026;28;20048;-36
2023/06/25 12:07:21;;;;;;;3.85;3.45;;;;;;;;;;5081686;28;20075;-36
2023/06/25 12:09:48;;;;;;;4.03;3.33;;;23.50;77.70;;;;;;5077692;28;20485;-32
2023/06/25 12:12:14;;;;;;;4.03;3.30;;;24.90;78.50;;;;;;5084660;28;20072;-32
2023/06/25 12:14:44;;;;;;;4.25;3.85;;;24.30;63.70;;;;;;5093868;28;20119;-36
2023/06/25 12:17:11;;;;;;;4.15;3.40;;;23.90;62.80;;;;;;5093524;28;20059;-35
2023/06/25 12:19:38;;;;;;;4.88;3.30;;;23.30;65.20;;;;;;5093119;28;20066;-32
2023/06/25 12:22:05;;;;;;;4.65;3.38;;;;;;;;;;5093649;28;20135;-35
2023/06/25 12:24:32;;;;;;;4.10;3.45;;;23.50;77.20;;;;;;5092683;28;20127;-33
2023/06/25 12:26:59;;;;;;;4.65;3.45;;;24.60;78.70;;;;;;5093691;28;20131;-32
2023/06/25 12:29:26;;;;;;;4.30;3.40;;;;;;;;;;5093425;28;20135;-38
2023/06/25 12:31:54;;;;;;;4.15;3.75;;;24.00;78.30;;;;;;5093468;28;20885;-32
2023/06/25 12:34:21;;;;;;;3.92;3.40;;;25.10;78.10;;;;;;5092171;28;20127;-33
2023/06/25 12:36:48;;;;;;;3.55;3.25;;;;;;;;;;5082364;28;20479;-36
2023/06/25 12:39:15;;;;;;;3.42;2.97;;;23.80;77.30;;;;;;5087363;28;20139;-33
2023/06/25 12:41:41;;;;;;;3.80;3.45;;;23.40;77.90;;;;;;5093254;28;20051;-32
2023/06/25 12:44:09;;;;;;;3.88;3.20;;;;;;;;;;5082874;28;20103;-35
2023/06/25 12:46:35;;;;;;;3.45;3.15;;;24.60;78.90;;;;;;5085582;28;20105;-33
2023/06/25 12:49:03;;;;;;;3.50;3.20;;;24.10;62.70;;;;;;5092119;28;20055;-35
2023/06/25 12:51:31;;;;;;;3.90;3.50;;;24.00;78.20;;;;;;5088175;28;20489;-32
2023/06/25 12:53:58;;;;;;;3.75;3.35;;;23.80;77.30;;;;;;5092548;28;20126;-32
2023/06/25 12:56:27;;;;;;;3.78;3.40;;;24.00;66.10;;;;;;5091131;28;20067;-34
2023/06/25 12:58:53;;;;;;;3.80;3.20;;;23.40;77.00;;;;;;5083582;28;20046;-33
2023/06/25 13:01:20;;;;;;;3.60;2.95;;;24.20;77.60;;;;;;5082391;28;20052;-32
2023/06/25 13:03:47;;;;;;;3.72;3.15;;;24.50;67.50;;;;;;5083882;28;20059;-32
2023/06/25 13:06:15;;;;;;;3.47;3.00;;;25.10;77.90;;;;;;5081263;28;21761;-32
2023/06/25 13:08:42;;;;;;;3.63;3.25;;;24.00;78.20;;;;;;5076285;28;20045;-32